CNS weather

Cairns International Airport
Cairns, Queensland, Australia

Public forecast

Using degrees Celsius for public forecast. Weather courtesy of forecast.io.

METAR (pilot weather report)

Retrieved 2018/09/21 14:00 UTC (17 minutes ago):

YBCS 211400Z 14009KT 9999 FEW025 SCT035 23/19 Q1020 NOSIG

TAF (pilot weather forecast)

Retrieved 2018/09/21 12:00 UTC (2 hours ago):

TAF YBCS 211109Z 2112/2212 14012KT 9999 -SHRA SCT025 BKN045 FM220100 13018G28KT 9999 SCT030 SCT050 FM220800 14013KT 9999 -SHRA SCT025 BKN040 INTER 2113/2122 5000 -SHRA BKN020 INTER 2211/2212 5000 -SHRA BKN020